Forestville, Pennsylvania
Current Conditions -  °F | °C
As of 1:55 PM on Saturday 25 Oct 2014 (Local Time) from KFKL Reporting Station
Overcast Overcast  
Wind Chill: 61°   Ceiling: 3800
Heat Index: 61°   Visibility: 10mi
Dew Point: 46°   Wind: 15mph
Humidity: 59%   Direction: 250°WSW
Pressure: 29.79"   Gusts: 20mph
Location:  41.1°N, 80°W
Report Text: KFKL 251755Z 25013G17KT 10SM BKN038 OVC048 16/08 A2979 RMK AO1 10170 20070 57027
Loading
Personal Weather Stations






























Interactive Weather Map
Tropical Storm Tracking
New forecast layout! Learn more

10-Day Weather Forecast

Advertisements
Track Severe Weather on mobile